Time;durP1;ratioP1;P1;durP2;ratioP2;P2;SDS_P1;SDS_P2;PMS_P1;PMS_P2;Temp;Humidity;BMP_temperature;BMP_pressure;BME280_temperature;BME280_humidity;BME280_pressure;Samples;Min_cycle;Max_cycle;Signal;HPM_P1;HPM_P2
2024/03/08 00:01:23;;;;;;;33.40;22.50;;;;;;;-2.41;100.00;101069.52;86864;273;136957;-70
2024/03/08 00:03:24;;;;;;;30.90;21.50;;;;;;;-2.38;100.00;101072.15;87015;281;23630;-71
2024/03/08 00:05:27;;;;;;;35.20;22.40;;;;;;;-2.37;100.00;101072.27;86870;270;137041;-71
2024/03/08 00:07:28;;;;;;;32.00;23.00;;;;;;;-2.36;100.00;101067.69;86999;273;25118;-71
2024/03/08 00:09:31;;;;;;;31.10;21.70;;;;;;;-2.39;100.00;101067.52;87540;265;136780;-71
2024/03/08 00:11:34;;;;;;;35.30;24.00;;;;;;;-2.43;100.00;101063.38;86967;273;24052;-70
2024/03/08 00:13:37;;;;;;;35.40;25.00;;;;;;;-2.48;100.00;101063.15;86853;273;136386;-71
2024/03/08 00:15:41;;;;;;;37.40;24.60;;;;;;;-2.50;100.00;101060.48;87033;273;25862;-73
2024/03/08 00:17:44;;;;;;;36.30;24.00;;;;;;;-2.54;100.00;101062.45;86707;275;135777;-71
2024/03/08 00:19:47;;;;;;;33.10;23.10;;;;;;;-2.58;100.00;101062.66;87514;278;25313;-71
2024/03/08 00:21:48;;;;;;;34.90;23.90;;;;;;;-2.62;100.00;101058.50;86747;267;136098;-71
2024/03/08 00:23:50;;;;;;;32.10;23.90;;;;;;;-2.64;100.00;101058.45;86981;280;22576;-71
2024/03/08 00:25:52;;;;;;;37.00;23.40;;;;;;;-2.65;100.00;101058.54;86771;282;136863;-71
2024/03/08 00:27:57;;;;;;;33.10;22.80;;;;;;;-2.64;100.00;101057.44;86928;273;24026;-70
2024/03/08 00:30:00;;;;;;;34.30;24.40;;;;;;;-2.63;100.00;101056.51;86773;271;137606;-69
2024/03/08 00:32:02;;;;;;;35.50;23.10;;;;;;;-2.63;100.00;101055.77;87034;276;24506;-70
2024/03/08 00:34:04;;;;;;;38.70;24.90;;;;;;;-2.62;100.00;101051.56;86985;280;25268;-69
2024/03/08 00:36:07;;;;;;;36.50;24.70;;;;;;;-2.62;100.00;101045.27;86785;281;137034;-70
2024/03/08 00:38:09;;;;;;;37.10;24.60;;;;;;;-2.59;100.00;101042.17;87124;273;22528;-72
2024/03/08 00:40:11;;;;;;;38.50;24.30;;;;;;;-2.58;100.00;101038.45;86842;269;137430;-70
2024/03/08 00:42:14;;;;;;;32.80;24.00;;;;;;;-2.57;100.00;101036.98;86795;279;25345;-72
2024/03/08 00:44:16;;;;;;;36.30;24.30;;;;;;;-2.56;100.00;101034.68;86755;274;136628;-73
2024/03/08 00:46:18;;;;;;;32.40;22.50;;;;;;;-2.54;100.00;101034.95;86876;270;23743;-72
2024/03/08 00:48:20;;;;;;;34.90;23.30;;;;;;;-2.53;100.00;101030.91;86812;269;137360;-72
2024/03/08 00:50:22;;;;;;;36.20;25.30;;;;;;;-2.53;100.00;101031.95;86773;274;25140;-69
2024/03/08 00:52:24;;;;;;;34.60;24.50;;;;;;;-2.54;100.00;101030.40;86636;271;138507;-72
2024/03/08 00:54:26;;;;;;;31.80;22.90;;;;;;;-2.55;100.00;101030.45;86809;274;25101;-72
2024/03/08 00:56:28;;;;;;;38.00;24.70;;;;;;;-2.57;100.00;101029.16;86694;275;137004;-72
2024/03/08 00:58:30;;;;;;;34.10;24.10;;;;;;;-2.56;100.00;101032.95;86741;274;24033;-71
2024/03/08 01:00:33;;;;;;;37.50;27.10;;;;;;;-2.54;100.00;101032.00;86684;276;136939;-70
2024/03/08 01:02:35;;;;;;;38.60;24.60;;;;;;;-2.53;100.00;101029.46;86999;274;22900;-71
2024/03/08 01:04:38;;;;;;;34.90;23.90;;;;;;;-2.51;100.00;101027.64;86724;274;136883;-71
2024/03/08 01:06:40;;;;;;;38.50;24.90;;;;;;;-2.50;100.00;101024.08;86958;281;25134;-71
2024/03/08 01:08:42;;;;;;;35.70;24.90;;;;;;;-2.50;100.00;101024.13;86812;277;139444;-70
2024/03/08 01:10:44;;;;;;;37.50;26.60;;;;;;;-2.52;100.00;101025.27;86880;275;25083;-72
2024/03/08 01:12:45;;;;;;;37.90;26.30;;;;;;;-2.55;100.00;101024.54;86644;282;137107;-72
2024/03/08 01:14:47;;;;;;;40.80;26.40;;;;;;;-2.57;100.00;101023.61;86925;273;22645;-72
2024/03/08 01:16:50;;;;;;;37.00;27.00;;;;;;;-2.58;100.00;101023.50;87219;269;136192;-70
2024/03/08 01:18:52;;;;;;;42.80;27.10;;;;;;;-2.59;100.00;101023.52;86977;273;25233;-71
2024/03/08 01:20:53;;;;;;;42.50;25.90;;;;;;;-2.60;100.00;101018.23;86896;274;136475;-73
2024/03/08 01:22:55;;;;;;;39.70;27.40;;;;;;;-2.61;100.00;101016.36;87233;277;25357;-72
2024/03/08 01:24:57;;;;;;;42.00;29.20;;;;;;;-2.61;100.00;101015.64;86853;269;137053;-73
2024/03/08 01:26:59;;;;;;;39.60;27.00;;;;;;;-2.59;100.00;101014.53;87336;273;25109;-71
2024/03/08 01:29:03;;;;;;;41.00;26.60;;;;;;;-2.58;100.00;101012.54;86696;282;138595;-71
2024/03/08 01:31:05;;;;;;;46.80;31.70;;;;;;;-2.58;100.00;101012.50;89777;269;23021;-72
2024/03/08 01:33:07;;;;;;;48.60;30.30;;;;;;;-2.55;100.00;101008.02;88405;268;137079;-73
2024/03/08 01:35:10;;;;;;;44.50;30.80;;;;;;;-2.52;100.00;101012.71;87133;268;23733;-72
2024/03/08 01:37:14;;;;;;;50.70;30.60;;;;;;;-2.49;100.00;101007.55;87227;273;136766;-73
2024/03/08 01:39:17;;;;;;;50.50;31.40;;;;;;;-2.21;100.00;101009.38;87041;277;24013;-70
2024/03/08 01:41:19;;;;;;;46.20;30.40;;;;;;;-2.14;100.00;101007.95;87244;273;137426;-71
2024/03/08 01:43:26;;;;;;;47.20;32.10;;;;;;;-2.12;100.00;101006.45;86837;275;26631;-71
2024/03/08 01:45:29;;;;;;;46.40;29.70;;;;;;;-2.12;100.00;101004.86;86888;275;137061;-71
2024/03/08 01:47:32;;;;;;;47.70;31.50;;;;;;;-2.12;100.00;101003.83;86983;273;24805;-70
2024/03/08 01:49:34;;;;;;;44.30;32.10;;;;;;;-2.13;100.00;101000.76;87150;273;137529;-70
2024/03/08 01:51:40;;;;;;;50.00;32.10;;;;;;;-2.13;100.00;101001.05;86915;273;23676;-70
2024/03/08 01:53:45;;;;;;;45.70;31.60;;;;;;;-2.10;100.00;100997.63;87063;278;137030;-71
2024/03/08 01:55:48;;;;;;;50.80;32.40;;;;;;;-2.10;100.00;100996.40;87393;278;22572;-69
2024/03/08 01:57:50;;;;;;;48.30;33.70;;;;;;;-2.10;100.00;100993.94;87011;271;137643;-70
2024/03/08 01:59:54;;;;;;;51.40;32.90;;;;;;;-2.10;100.00;100991.35;87205;271;25194;-71
2024/03/08 02:02:01;;;;;;;47.80;32.10;;;;;;;-2.10;100.00;100990.08;87310;268;137013;-72
2024/03/08 02:04:05;;;;;;;52.40;35.10;;;;;;;-2.12;100.00;100988.84;86842;273;136578;-68
2024/03/08 02:06:10;;;;;;;60.90;38.80;;;;;;;-2.17;100.00;100987.90;86964;272;22555;-70
2024/03/08 02:08:14;;;;;;;49.10;35.40;;;;;;;-2.23;100.00;100987.71;86881;272;137811;-71
2024/03/08 02:10:18;;;;;;;56.60;36.50;;;;;;;-2.31;100.00;100988.17;86964;281;24014;-70
2024/03/08 02:12:23;;;;;;;58.50;37.10;;;;;;;-2.37;100.00;100984.58;86954;268;138429;-71
2024/03/08 02:14:25;;;;;;;62.50;37.60;;;;;;;-2.45;100.00;100984.30;87011;276;25265;-71
2024/03/08 02:16:27;;;;;;;58.20;40.50;;;;;;;-2.51;100.00;100984.83;87128;267;137855;-71
2024/03/08 02:18:32;;;;;;;58.90;37.90;;;;;;;-2.56;100.00;100985.44;87242;271;22588;-70
2024/03/08 02:20:33;;;;;;;63.10;37.50;;;;;;;-2.58;100.00;100985.91;87181;275;137443;-71
2024/03/08 02:22:36;;;;;;;55.80;35.40;;;;;;;-2.60;100.00;100983.41;87168;271;22850;-71
2024/03/08 02:24:38;;;;;;;54.10;34.50;;;;;;;-2.62;100.00;100984.23;86859;273;137482;-71
2024/03/08 02:26:39;;;;;;;58.60;38.10;;;;;;;-2.64;100.00;100985.21;87141;278;25121;-72
2024/03/08 02:28:43;;;;;;;63.10;37.70;;;;;;;-2.64;100.00;100981.23;86919;280;136838;-71
2024/03/08 02:30:50;;;;;;;56.60;38.20;;;;;;;-2.64;100.00;100980.68;87407;271;24145;-71
2024/03/08 02:32:52;;;;;;;57.10;36.90;;;;;;;-2.65;100.00;100978.33;87164;271;137646;-72
2024/03/08 02:34:59;;;;;;;60.50;37.40;;;;;;;-2.65;100.00;100975.38;87109;271;25493;-71
2024/03/08 02:37:02;;;;;;;58.90;36.90;;;;;;;-2.65;100.00;100972.91;86899;276;137657;-72
2024/03/08 02:39:05;;;;;;;55.10;35.00;;;;;;;-2.66;100.00;100973.11;87190;279;25223;-70
2024/03/08 02:41:08;;;;;;;62.70;36.00;;;;;;;-2.67;100.00;100971.30;86948;273;137336;-71
2024/03/08 02:43:11;;;;;;;58.60;36.20;;;;;;;-2.70;100.00;100969.55;87087;278;22968;-70
2024/03/08 02:45:13;;;;;;;55.80;36.00;;;;;;;-2.72;100.00;100964.98;87151;278;137668;-70
2024/03/08 02:47:15;;;;;;;56.70;36.00;;;;;;;-2.72;100.00;100965.65;87158;271;22572;-74
2024/03/08 02:49:17;;;;;;;59.30;38.10;;;;;;;-2.72;100.00;100962.90;87517;278;137153;-73
2024/03/08 02:51:20;;;;;;;67.20;39.50;;;;;;;-2.73;100.00;100961.89;87540;274;22550;-75
2024/03/08 02:53:22;;;;;;;55.50;38.40;;;;;;;-2.73;100.00;100959.27;87602;271;137361;-74
2024/03/08 02:55:26;;;;;;;62.80;39.50;;;;;;;-2.74;100.00;100961.93;87510;267;25085;-75
2024/03/08 02:57:27;;;;;;;62.00;39.40;;;;;;;-2.76;100.00;100958.89;87399;271;137097;-75
2024/03/08 02:59:29;;;;;;;66.40;41.20;;;;;;;-2.78;100.00;100955.88;87395;276;22715;-75
2024/03/08 03:01:32;;;;;;;60.00;38.90;;;;;;;-2.80;100.00;100955.48;87295;276;137299;-76
2024/03/08 03:03:33;;;;;;;63.90;40.80;;;;;;;-2.82;100.00;100952.48;87523;272;22754;-73
2024/03/08 03:05:35;;;;;;;64.30;41.50;;;;;;;-2.83;100.00;100952.52;87508;274;138292;-73
2024/03/08 03:07:38;;;;;;;61.20;41.70;;;;;;;-2.85;100.00;100950.02;87582;270;25079;-74
2024/03/08 03:09:40;;;;;;;65.40;40.50;;;;;;;-2.86;100.00;100949.39;87529;267;137323;-75
2024/03/08 03:11:44;;;;;;;65.10;40.80;;;;;;;-2.87;100.00;100953.65;87584;267;22651;-75
2024/03/08 03:13:48;;;;;;;65.10;41.50;;;;;;;-2.88;100.00;100950.71;87469;263;137314;-76
2024/03/08 03:15:51;;;;;;;67.20;43.00;;;;;;;-2.89;100.00;100947.65;87368;280;25419;-76
2024/03/08 03:17:53;;;;;;;70.80;42.90;;;;;;;-2.87;100.00;100952.08;87213;281;137313;-74
2024/03/08 03:19:55;;;;;;;71.60;44.20;;;;;;;-2.85;100.00;100946.94;87122;276;26198;-73
2024/03/08 03:21:57;;;;;;;67.00;43.20;;;;;;;-2.84;100.00;100942.35;87481;271;137550;-75
2024/03/08 03:23:59;;;;;;;72.30;43.10;;;;;;;-2.83;100.00;100941.04;87621;271;23299;-74
2024/03/08 03:26:02;;;;;;;60.50;40.40;;;;;;;-2.83;100.00;100939.88;87346;273;136756;-73
2024/03/08 03:28:04;;;;;;;66.70;41.30;;;;;;;-2.84;100.00;100938.00;87351;271;137319;-74
2024/03/08 03:30:20;;;;;;;58.60;38.90;;;;;;;-2.84;100.00;100935.20;87613;271;23291;-75
2024/03/08 03:32:23;;;;;;;69.10;42.70;;;;;;;-2.83;100.00;100934.08;87344;267;137005;-75
2024/03/08 03:34:25;;;;;;;65.40;43.30;;;;;;;-2.83;100.00;100935.98;87496;266;26236;-73
2024/03/08 03:36:29;;;;;;;64.80;41.80;;;;;;;-2.82;100.00;100936.67;87502;278;137125;-73
2024/03/08 03:38:31;;;;;;;68.40;41.50;;;;;;;-2.81;100.00;100937.46;87503;266;22566;-75
2024/03/08 03:40:34;;;;;;;67.60;40.70;;;;;;;-2.82;100.00;100938.92;87381;270;136345;-75
2024/03/08 03:42:38;;;;;;;67.10;39.20;;;;;;;-2.84;100.00;100937.30;87480;270;24013;-73
2024/03/08 03:44:39;;;;;;;59.50;38.50;;;;;;;-2.87;100.00;100937.27;87079;271;137202;-72
2024/03/08 03:46:45;;;;;;;59.20;38.70;;;;;;;-2.90;100.00;100938.52;87278;273;22562;-72
2024/03/08 03:48:48;;;;;;;54.30;35.80;;;;;;;-2.95;100.00;100938.92;87152;270;136804;-75
2024/03/08 03:50:50;;;;;;;59.20;37.60;;;;;;;-2.97;100.00;100935.60;87316;274;22561;-74
2024/03/08 03:52:53;;;;;;;56.50;35.10;;;;;;;-3.00;100.00;100935.91;87226;275;138237;-74
2024/03/08 03:54:55;;;;;;;56.00;35.10;;;;;;;-3.01;100.00;100933.71;87271;269;22556;-73
2024/03/08 03:56:56;;;;;;;48.30;32.10;;;;;;;-3.01;100.00;100932.16;87380;278;137337;-75
2024/03/08 03:58:59;;;;;;;50.00;33.00;;;;;;;-3.00;100.00;100928.79;87350;271;22560;-74
2024/03/08 04:01:00;;;;;;;53.30;33.40;;;;;;;-3.00;100.00;100929.81;87385;270;138118;-73
2024/03/08 04:03:02;;;;;;;49.60;32.90;;;;;;;-2.99;100.00;100929.44;87337;278;22591;-73
2024/03/08 04:05:06;;;;;;;46.00;29.90;;;;;;;-2.97;100.00;100928.98;87163;274;138333;-73
2024/03/08 04:07:09;;;;;;;48.70;32.40;;;;;;;-2.95;100.00;100928.17;87333;277;22578;-74
2024/03/08 04:09:12;;;;;;;42.20;30.40;;;;;;;-2.92;100.00;100925.40;87196;263;138841;-73
2024/03/08 04:11:16;;;;;;;45.10;30.00;;;;;;;-2.89;100.00;100925.08;87456;270;22560;-74
2024/03/08 04:13:20;;;;;;;49.40;31.20;;;;;;;-2.85;100.00;100926.42;87199;277;137216;-75
2024/03/08 04:15:23;;;;;;;44.10;29.60;;;;;;;-2.82;100.00;100926.91;87597;266;22628;-72
2024/03/08 04:17:24;;;;;;;43.80;30.30;;;;;;;-2.76;100.00;100923.63;87346;271;140732;-74
2024/03/08 04:19:28;;;;;;;41.00;26.80;;;;;;;-2.70;100.00;100921.88;87673;270;22638;-74
2024/03/08 04:21:30;;;;;;;44.10;29.80;;;;;;;-2.64;100.00;100920.80;87711;266;138537;-72
2024/03/08 04:23:35;;;;;;;39.00;27.70;;;;;;;-2.55;100.00;100914.40;88013;278;22568;-74
2024/03/08 04:25:37;;;;;;;;;;;;;;;-2.47;100.00;100912.70;87691;269;139350;-74
2024/03/08 04:27:40;;;;;;;43.40;27.00;;;;;;;-2.40;100.00;100908.80;87580;270;23736;-74
2024/03/08 04:29:42;;;;;;;42.70;27.20;;;;;;;-2.34;100.00;100907.27;87430;266;137289;-74
2024/03/08 04:31:44;;;;;;;47.20;28.10;;;;;;;-2.30;100.00;100908.71;87318;270;23742;-75
2024/03/08 04:33:46;;;;;;;41.70;29.00;;;;;;;-2.30;100.00;100908.20;87440;274;137460;-73
2024/03/08 04:35:48;;;;;;;40.70;28.70;;;;;;;-2.31;100.00;100909.17;87536;278;24545;-73
2024/03/08 04:37:50;;;;;;;40.10;29.10;;;;;;;-2.30;100.00;100910.52;87696;274;136412;-71
2024/03/08 04:39:52;;;;;;;41.30;29.40;;;;;;;-2.29;100.00;100908.90;87305;267;22571;-74
2024/03/08 04:41:59;;;;;;;35.60;25.90;;;;;;;-2.26;100.00;100910.27;87261;272;137406;-76
2024/03/08 04:44:05;;;;;;;37.90;27.10;;;;;;;-2.21;100.00;100908.73;87237;273;138036;-75
2024/03/08 04:46:07;;;;;;;41.40;27.60;;;;;;;-2.12;100.00;100912.20;87574;270;25219;-74
2024/03/08 04:48:09;;;;;;;39.90;28.00;;;;;;;-1.92;100.00;100906.64;87542;271;136905;-74
2024/03/08 04:50:11;;;;;;;36.30;25.90;;;;;;;-1.65;100.00;100906.02;87579;265;22568;-74
2024/03/08 04:52:13;;;;;;;37.90;27.50;;;;;;;-1.34;100.00;100906.00;87209;270;137430;-75
2024/03/08 04:54:14;;;;;;;42.60;28.00;;;;;;;-0.97;100.00;100903.82;87586;274;26180;-74
2024/03/08 04:56:16;;;;;;;36.20;26.10;;;;;;;-0.54;100.00;100906.88;87484;277;139006;-75
2024/03/08 04:58:18;;;;;;;36.80;27.10;;;;;;;-0.09;100.00;100907.04;87608;274;22613;-80
2024/03/08 05:00:20;;;;;;;40.60;26.00;;;;;;;0.33;99.30;100911.59;87723;270;137876;-80
2024/03/08 05:02:22;;;;;;;35.00;25.90;;;;;;;0.76;96.45;100910.13;87847;270;22558;-82
2024/03/08 05:04:24;;;;;;;38.90;26.50;;;;;;;1.18;93.70;100909.87;87839;274;136075;-81
2024/03/08 05:06:26;;;;;;;39.40;28.50;;;;;;;1.57;90.71;100909.45;87793;270;23749;-78
2024/03/08 05:08:28;;;;;;;37.70;27.40;;;;;;;1.94;87.67;100910.31;87637;270;136228;-83
2024/03/08 05:10:30;;;;;;;35.00;27.20;;;;;;;2.26;84.99;100910.63;87981;269;22559;-76
2024/03/08 05:12:32;;;;;;;36.30;27.70;;;;;;;2.60;82.55;100914.27;87514;275;137410;-76
2024/03/08 05:14:37;;;;;;;37.30;28.20;;;;;;;2.92;79.91;100912.71;87716;273;25175;-74
2024/03/08 05:16:40;;;;;;;39.50;28.60;;;;;;;3.25;77.36;100907.55;87561;269;137293;-75
2024/03/08 05:18:42;;;;;;;37.80;29.40;;;;;;;3.55;75.19;100910.56;87161;271;22569;-74
2024/03/08 05:20:44;;;;;;;43.20;32.20;;;;;;;3.83;73.42;100913.47;89859;273;137850;-68
2024/03/08 05:22:46;;;;;;;42.00;31.70;;;;;;;4.13;71.50;100919.89;89128;266;24146;-68
2024/03/08 05:24:48;;;;;;;39.70;30.50;;;;;;;4.40;69.77;100916.98;87050;273;136422;-68
2024/03/08 05:26:51;;;;;;;38.90;29.30;;;;;;;4.66;68.05;100917.06;87145;269;23887;-69
2024/03/08 05:28:54;;;;;;;42.10;31.20;;;;;;;4.87;65.57;100914.16;87884;265;136334;-69
2024/03/08 05:30:56;;;;;;;40.90;31.60;;;;;;;4.97;63.79;100914.11;87145;274;22530;-68
2024/03/08 05:32:58;;;;;;;36.10;29.80;;;;;;;4.99;63.26;100911.31;87039;270;137804;-69
2024/03/08 05:35:02;;;;;;;35.90;29.90;;;;;;;5.13;62.97;100907.77;87986;278;25099;-69
2024/03/08 05:37:04;;;;;;;39.60;29.60;;;;;;;5.33;62.40;100906.95;87027;270;136750;-69
2024/03/08 05:39:07;;;;;;;41.80;29.70;;;;;;;5.65;62.03;100902.10;87194;274;24100;-69
2024/03/08 05:41:11;;;;;;;38.60;30.60;;;;;;;6.07;60.84;100901.37;87134;270;136274;-69
2024/03/08 05:43:13;;;;;;;42.70;32.90;;;;;;;6.48;59.03;100901.36;87638;269;24260;-68
2024/03/08 05:45:15;;;;;;;47.80;31.40;;;;;;;6.77;57.10;100903.02;87125;273;136486;-68
2024/03/08 05:47:18;;;;;;;42.30;32.30;;;;;;;6.96;56.01;100898.52;87199;270;22580;-71
2024/03/08 05:49:21;;;;;;;40.30;32.60;;;;;;;7.11;54.46;100900.38;87122;276;136933;-70
2024/03/08 05:51:24;;;;;;;44.80;35.90;;;;;;;7.19;53.90;100896.02;87361;269;22578;-69
2024/03/08 05:53:26;;;;;;;49.40;40.60;;;;;;;7.23;52.84;100893.05;87307;273;136231;-69
2024/03/08 05:55:29;;;;;;;51.90;40.20;;;;;;;7.11;51.86;100891.86;87161;274;22551;-68
2024/03/08 05:57:32;;;;;;;44.90;36.70;;;;;;;6.93;52.70;100891.96;87330;267;136269;-68
2024/03/08 05:59:34;;;;;;;52.90;39.90;;;;;;;6.93;53.27;100891.43;86996;279;22565;-68
2024/03/08 06:01:38;;;;;;;49.40;37.60;;;;;;;7.07;52.76;100888.61;87125;271;136483;-68
2024/03/08 06:03:44;;;;;;;44.30;35.50;;;;;;;7.13;52.45;100890.59;87111;274;22560;-69
2024/03/08 06:05:49;;;;;;;50.00;37.80;;;;;;;7.26;52.41;100889.84;87796;267;136019;-68
2024/03/08 06:07:53;;;;;;;49.40;38.50;;;;;;;7.39;51.19;100893.22;87241;273;22688;-69
2024/03/08 06:09:55;;;;;;;51.90;38.40;;;;;;;7.38;51.08;100893.65;87181;266;135932;-68
2024/03/08 06:11:57;;;;;;;46.10;37.40;;;;;;;7.43;51.70;100891.34;87079;270;24147;-69
2024/03/08 06:13:59;;;;;;;45.50;34.90;;;;;;;7.69;51.34;100889.52;86603;269;863948;-69
2024/03/08 06:16:05;;;;;;;44.70;36.20;;;;;;;7.98;50.67;100893.95;87296;269;25255;-68
2024/03/08 06:18:10;;;;;;;47.30;36.20;;;;;;;8.24;49.78;100890.55;87102;274;22642;-68
2024/03/08 06:20:13;;;;;;;44.20;35.70;;;;;;;8.43;49.21;100893.94;87142;263;136446;-67
2024/03/08 06:22:15;;;;;;;47.60;36.60;;;;;;;8.59;48.68;100891.17;87579;266;25239;-68
2024/03/08 06:24:17;;;;;;;45.10;35.10;;;;;;;8.79;48.28;100891.91;87086;271;136443;-66
2024/03/08 06:26:21;;;;;;;46.40;34.10;;;;;;;8.91;47.83;100889.18;87751;274;22566;-68
2024/03/08 06:28:24;;;;;;;46.20;36.00;;;;;;;9.04;47.51;100885.92;87364;266;136287;-69
2024/03/08 06:30:25;;;;;;;46.40;34.80;;;;;;;9.21;47.11;100881.10;87132;262;23737;-69
2024/03/08 06:32:27;;;;;;;45.40;36.90;;;;;;;9.35;46.34;100882.36;87029;270;136533;-69
2024/03/08 06:34:29;;;;;;;46.10;34.60;;;;;;;9.21;46.23;100883.49;87081;277;24036;-70
2024/03/08 06:36:31;;;;;;;44.50;35.20;;;;;;;8.78;46.39;100882.30;87151;269;136110;-71
2024/03/08 06:38:32;;;;;;;46.70;36.10;;;;;;;8.23;46.98;100885.17;87066;277;22723;-70
2024/03/08 06:40:35;;;;;;;46.60;38.20;;;;;;;7.61;48.18;100882.61;86927;270;136390;-68
2024/03/08 06:42:37;;;;;;;58.70;39.20;;;;;;;7.06;49.11;100881.78;87073;269;22595;-66
2024/03/08 06:44:45;;;;;;;46.10;36.50;;;;;;;6.56;50.48;100881.08;87012;270;136261;-68
2024/03/08 06:46:48;;;;;;;52.40;37.80;;;;;;;6.00;52.28;100879.80;87458;277;24112;-68
2024/03/08 06:48:49;;;;;;;61.00;38.30;;;;;;;5.45;53.56;100879.23;87052;270;136188;-66
2024/03/08 06:50:52;;;;;;;50.20;35.30;;;;;;;5.03;55.30;100876.20;87146;269;22649;-67
2024/03/08 06:52:53;;;;;;;46.30;38.00;;;;;;;4.66;56.84;100880.26;87064;270;136018;-68
2024/03/08 06:54:57;;;;;;;48.80;37.60;;;;;;;4.32;58.28;100882.68;87077;278;23773;-69
2024/03/08 06:56:58;;;;;;;53.70;36.30;;;;;;;4.06;60.11;100882.33;87068;266;137398;-67
2024/03/08 06:59:02;;;;;;;48.40;36.40;;;;;;;3.78;61.94;100884.23;87192;274;24577;-69
2024/03/08 07:01:07;;;;;;;60.70;39.50;;;;;;;3.53;62.73;100873.83;87018;270;136168;-68
2024/03/08 07:03:12;;;;;;;55.90;36.70;;;;;;;3.40;64.30;100878.45;87214;274;25319;-68
2024/03/08 07:05:16;;;;;;;53.10;38.50;;;;;;;3.26;65.64;100870.59;87526;266;137879;-68
2024/03/08 07:07:20;;;;;;;52.10;36.80;;;;;;;3.14;66.30;100870.94;87123;269;22614;-71
2024/03/08 07:09:22;;;;;;;56.20;37.40;;;;;;;3.06;66.84;100873.51;86932;270;136439;-69
2024/03/08 07:11:24;;;;;;;55.00;37.70;;;;;;;2.99;67.25;100872.69;87142;270;22573;-69
2024/03/08 07:13:28;;;;;;;45.20;33.80;;;;;;;2.86;68.10;100875.31;87037;270;136371;-70
2024/03/08 07:15:30;;;;;;;48.80;35.60;;;;;;;2.61;69.72;100872.58;87096;274;25073;-71
2024/03/08 07:17:35;;;;;;;51.30;35.80;;;;;;;2.50;70.27;100873.12;87084;270;136139;-70
2024/03/08 07:19:38;;;;;;;49.10;35.80;;;;;;;2.43;71.12;100869.66;87346;267;24896;-69
2024/03/08 07:21:40;;;;;;;46.00;34.50;;;;;;;2.41;71.48;100867.66;87215;278;136409;-68
2024/03/08 07:26:02;;;;;;;49.50;35.10;;;;;;;2.39;72.67;100869.92;87277;266;135924;-70
2024/03/08 07:28:06;;;;;;;50.10;33.80;;;;;;;2.40;72.88;100866.20;87002;262;136456;-67
2024/03/08 07:30:11;;;;;;;46.30;33.80;;;;;;;2.44;72.70;100869.40;90153;264;22241;-69
2024/03/08 07:32:21;;;;;;;49.80;35.70;;;;;;;2.46;72.90;100866.95;87232;269;136269;-70
2024/03/08 07:34:23;;;;;;;50.30;33.70;;;;;;;2.47;72.76;100865.09;87203;271;24266;-69
2024/03/08 07:36:25;;;;;;;44.30;32.10;;;;;;;2.49;72.78;100868.30;86930;271;140542;-68
2024/03/08 07:38:27;;;;;;;42.40;31.80;;;;;;;2.51;72.65;100867.90;87169;271;22557;-71
2024/03/08 07:40:29;;;;;;;47.90;32.30;;;;;;;2.53;72.26;100865.48;87195;271;136220;-70
2024/03/08 07:42:30;;;;;;;48.70;33.50;;;;;;;2.50;71.95;100861.13;87201;275;22558;-69
2024/03/08 07:44:33;;;;;;;40.40;30.00;;;;;;;2.47;72.01;100861.23;87052;274;136215;-69
2024/03/08 07:46:35;;;;;;;48.30;31.90;;;;;;;2.49;71.89;100859.01;87305;270;25131;-68
2024/03/08 07:48:37;;;;;;;45.80;30.30;;;;;;;2.56;71.41;100860.20;87089;269;136160;-71
2024/03/08 07:50:40;;;;;;;42.40;33.60;;;;;;;2.62;71.18;100857.96;87374;271;24656;-70
2024/03/08 07:52:42;;;;;;;39.80;29.50;;;;;;;2.66;70.86;100853.96;87171;271;136668;-68
2024/03/08 07:54:44;;;;;;;43.20;28.80;;;;;;;2.68;70.88;100855.48;87295;271;23724;-72
2024/03/08 07:56:47;;;;;;;36.60;25.70;;;;;;;2.76;70.37;100850.13;87067;271;136701;-70
2024/03/08 07:58:48;;;;;;;40.60;26.70;;;;;;;2.82;69.09;100851.59;87177;275;22976;-69
2024/03/08 08:00:51;;;;;;;41.40;29.40;;;;;;;2.87;69.21;100848.02;87145;275;137881;-69
2024/03/08 08:02:54;;;;;;;51.60;31.20;;;;;;;2.93;69.21;100850.33;87288;271;22568;-70
2024/03/08 08:04:59;;;;;;;45.00;29.50;;;;;;;3.01;68.79;100848.80;87141;271;136048;-71
2024/03/08 08:07:01;;;;;;;37.40;26.60;;;;;;;3.08;68.01;100850.67;87417;267;22651;-68
2024/03/08 08:09:03;;;;;;;34.20;25.70;;;;;;;3.16;67.57;100848.80;87159;274;136391;-68
2024/03/08 08:11:08;;;;;;;35.50;24.10;;;;;;;3.23;66.99;100843.09;87168;271;22640;-68
2024/03/08 08:13:12;;;;;;;41.50;25.50;;;;;;;3.33;65.96;100840.16;87440;275;136392;-69
2024/03/08 08:15:15;;;;;;;35.70;25.00;;;;;;;3.41;65.36;100840.90;87597;278;25017;-69
2024/03/08 08:17:16;;;;;;;35.20;25.30;;;;;;;3.48;64.97;100840.36;87377;266;136206;-70
2024/03/08 08:19:18;;;;;;;46.80;27.30;;;;;;;3.53;64.76;100838.50;87252;278;22563;-69
2024/03/08 08:21:22;;;;;;;33.70;25.50;;;;;;;3.57;64.87;100836.39;87324;271;136227;-68
2024/03/08 08:23:23;;;;;;;35.50;25.90;;;;;;;3.63;64.77;100834.79;87171;270;22594;-69
2024/03/08 08:25:25;;;;;;;31.60;24.50;;;;;;;3.70;63.67;100834.41;87099;266;137788;-69
2024/03/08 08:27:27;;;;;;;29.20;23.10;;;;;;;3.77;62.31;100829.05;87140;278;22544;-68
2024/03/08 08:29:30;;;;;;;28.20;20.70;;;;;;;3.83;61.77;100826.96;87076;267;136342;-68
2024/03/08 08:31:32;;;;;;;33.70;22.80;;;;;;;3.89;60.96;100826.77;87085;278;25405;-70
2024/03/08 08:33:35;;;;;;;28.90;22.50;;;;;;;3.94;60.93;100827.23;87038;269;136174;-68
2024/03/08 08:35:38;;;;;;;32.00;21.60;;;;;;;4.01;60.05;100829.33;87214;270;25098;-68
2024/03/08 08:37:39;;;;;;;28.70;22.10;;;;;;;4.05;59.70;100828.91;87037;274;136078;-67
2024/03/08 08:39:42;;;;;;;26.40;19.30;;;;;;;4.13;59.71;100830.52;87208;270;25185;-68
2024/03/08 08:41:44;;;;;;;26.00;18.80;;;;;;;4.22;57.82;100833.23;87146;270;136369;-67
2024/03/08 08:43:45;;;;;;;30.80;20.00;;;;;;;4.24;56.92;100829.59;87238;271;23997;-68
2024/03/08 08:46:04;;;;;;;26.80;19.80;;;;;;;4.25;57.30;100827.16;87252;274;26207;-69
2024/03/08 08:48:06;;;;;;;28.20;20.70;;;;;;;4.34;56.78;100822.34;87089;270;138478;-69
2024/03/08 08:50:11;;;;;;;26.10;18.30;;;;;;;4.41;56.24;100825.08;87262;279;22562;-68
2024/03/08 08:52:15;;;;;;;22.50;17.20;;;;;;;4.43;54.79;100818.35;87136;266;137417;-68
2024/03/08 08:54:18;;;;;;;22.00;17.30;;;;;;;4.44;54.13;100820.91;87210;266;24027;-68
2024/03/08 08:56:22;;;;;;;22.60;17.30;;;;;;;4.45;52.72;100822.29;87232;277;135368;-69
2024/03/08 08:58:24;;;;;;;26.80;18.30;;;;;;;4.43;52.94;100813.30;87276;266;22576;-69
2024/03/08 09:00:27;;;;;;;27.10;17.70;;;;;;;4.44;53.27;100812.10;87457;274;137313;-66
2024/03/08 09:02:29;;;;;;;29.00;18.90;;;;;;;4.46;53.43;100813.37;87179;263;22674;-67
2024/03/08 09:04:32;;;;;;;24.50;17.50;;;;;;;4.50;53.66;100808.65;87372;271;137131;-68
2024/03/08 09:06:35;;;;;;;20.00;15.40;;;;;;;4.56;53.55;100802.45;87119;270;24026;-67
2024/03/08 09:08:40;;;;;;;26.30;14.80;;;;;;;4.62;52.90;100801.05;87160;266;137415;-67
2024/03/08 09:10:43;;;;;;;18.80;13.40;;;;;;;4.68;52.61;100799.44;87251;267;22565;-68
2024/03/08 09:12:45;;;;;;;17.20;12.70;;;;;;;4.73;52.46;100796.21;87389;274;136368;-68
2024/03/08 09:14:47;;;;;;;13.80;10.80;;;;;;;4.76;51.50;100792.17;87219;274;24171;-69
2024/03/08 09:16:49;;;;;;;12.80;10.70;;;;;;;4.76;50.37;100797.29;87154;266;136402;-68
2024/03/08 09:18:51;;;;;;;14.20;10.70;;;;;;;4.74;50.60;100790.13;87251;270;22580;-69
2024/03/08 09:20:53;;;;;;;14.80;10.30;;;;;;;4.75;50.99;100790.15;87126;271;136217;-70
2024/03/08 09:22:55;;;;;;;11.00;9.80;;;;;;;4.82;50.43;100789.23;87343;274;23644;-69